Time;durP1;ratioP1;P1;durP2;ratioP2;P2;SDS_P1;SDS_P2;PMS_P1;PMS_P2;Temp;Humidity;BMP_temperature;BMP_pressure;BME280_temperature;BME280_humidity;BME280_pressure;Samples;Min_cycle;Max_cycle;Signal;HPM_P1;HPM_P2
2021/12/20 00:01:41;;;;;;;1.97;1.87;;;4.40;87.20;3.60;99069.00;;;;5116750;28;20251;-71
2021/12/20 00:04:07;;;;;;;2.27;2.17;;;4.40;88.10;3.70;99049.00;;;;5116852;28;20269;-73
2021/12/20 00:06:36;;;;;;;1.50;1.47;;;4.40;88.30;3.60;99051.00;;;;5098755;28;20226;-72
2021/12/20 00:09:05;;;;;;;2.80;2.60;;;4.50;86.70;3.60;99043.00;;;;5097759;28;20600;-72
2021/12/20 00:11:32;;;;;;;2.20;2.03;;;4.40;86.70;3.60;99027.00;;;;5116766;28;20217;-73
2021/12/20 00:13:59;;;;;;;1.20;1.20;;;4.40;87.00;3.60;99037.00;;;;5116726;28;20206;-74
2021/12/20 00:16:26;;;;;;;8.63;2.93;;;4.40;86.90;3.50;99029.00;;;;5116552;28;20256;-73
2021/12/20 00:18:52;;;;;;;3.00;2.77;;;4.40;86.70;3.40;99031.00;;;;5116478;28;20309;-73
2021/12/20 00:21:19;;;;;;;1.87;1.77;;;4.30;87.30;3.50;99036.00;;;;5116583;28;20288;-72
2021/12/20 00:23:45;;;;;;;3.10;2.60;;;4.40;87.60;3.50;99033.00;;;;5098589;28;20202;-71
2021/12/20 00:26:14;;;;;;;2.30;2.13;;;4.40;87.30;3.60;99036.00;;;;5116435;28;20207;-72
2021/12/20 00:28:42;;;;;;;1.17;1.17;;;4.40;87.40;3.70;99014.00;;;;5098770;28;20198;-72
2021/12/20 00:31:09;;;;;;;2.47;2.33;;;4.50;87.10;3.80;99013.00;;;;5098520;28;20311;-72
2021/12/20 00:33:36;;;;;;;3.13;2.33;;;4.50;86.90;3.50;99003.00;;;;5116305;28;20573;-74
2021/12/20 00:36:06;;;;;;;2.27;2.17;;;4.40;86.50;3.50;99006.00;;;;5116226;28;20240;-72
2021/12/20 00:41:23;;;;;;;2.00;1.80;;;4.30;88.00;3.50;99008.00;;;;5116279;28;20186;-72
2021/12/20 00:43:49;;;;;;;1.93;1.80;;;4.30;88.90;3.50;99009.00;;;;5116144;28;20312;-72
2021/12/20 00:46:17;;;;;;;1.43;1.33;;;4.30;87.60;3.50;99010.00;;;;5116363;28;20304;-72
2021/12/20 00:48:44;;;;;;;1.87;1.63;;;4.30;87.90;3.50;99017.00;;;;5116074;28;20300;-72
2021/12/20 00:51:10;;;;;;;1.27;1.20;;;4.30;87.80;3.50;99007.00;;;;5116268;28;20202;-73
2021/12/20 00:53:37;;;;;;;2.00;1.90;;;4.30;88.00;3.40;99004.00;;;;5116107;28;20609;-73
2021/12/20 00:56:04;;;;;;;2.23;2.03;;;4.30;88.10;3.50;99006.00;;;;5097984;28;20282;-72
2021/12/20 00:58:30;;;;;;;2.07;1.73;;;4.30;88.50;3.60;99005.00;;;;5116231;28;20193;-73
2021/12/20 01:00:58;;;;;;;2.67;1.73;;;4.40;88.20;3.60;99012.00;;;;5098029;28;20205;-73
2021/12/20 01:03:27;;;;;;;4.27;1.90;;;4.40;87.60;3.50;99014.00;;;;5098390;28;20681;-73
2021/12/20 01:05:54;;;;;;;1.47;1.37;;;4.30;87.40;3.60;99015.00;;;;5116082;28;20219;-72
2021/12/20 01:08:21;;;;;;;1.53;1.43;;;4.40;87.60;3.50;99011.00;;;;5115736;28;20296;-73
2021/12/20 01:10:51;;;;;;;2.37;2.27;;;4.40;87.10;3.50;99010.00;;;;5116034;28;20292;-73
2021/12/20 01:13:24;;;;;;;1.67;1.57;;;4.30;88.30;3.40;99010.00;;;;5115919;28;20218;-73
2021/12/20 01:15:53;;;;;;;2.40;2.17;;;4.30;87.70;3.40;98997.00;;;;5115717;28;20582;-73
2021/12/20 01:18:22;;;;;;;2.07;1.63;;;4.30;87.90;3.50;99002.00;;;;5115411;28;20194;-72
2021/12/20 01:20:50;;;;;;;2.57;2.37;;;4.30;87.60;3.50;99005.00;;;;5097769;28;20620;-72
2021/12/20 01:23:20;;;;;;;2.33;2.13;;;4.30;87.70;3.40;99004.00;;;;5115810;28;20735;-72
2021/12/20 01:25:47;;;;;;;2.10;2.00;;;4.30;87.70;3.40;99001.00;;;;5115483;28;20217;-72
2021/12/20 01:28:14;;;;;;;1.83;1.73;;;4.30;87.90;3.40;99017.00;;;;5115713;28;20525;-72
2021/12/20 01:30:42;;;;;;;1.90;1.80;;;4.30;88.00;3.40;98982.00;;;;5097624;28;20204;-72
2021/12/20 01:33:11;;;;;;;1.70;1.60;;;4.30;88.30;3.50;99017.00;;;;5097429;28;20230;-72
2021/12/20 01:35:38;;;;;;;1.00;1.00;;;4.30;89.30;3.30;99008.00;;;;5115397;28;20217;-72
2021/12/20 01:38:05;;;;;;;1.70;1.60;;;4.30;88.10;3.40;99002.00;;;;5115272;28;20251;-72
2021/12/20 01:40:34;;;;;;;3.90;2.00;;;4.30;88.40;3.50;99014.00;;;;5115352;28;20197;-72
2021/12/20 01:43:06;;;;;;;2.47;2.03;;;4.30;88.50;3.50;99001.00;;;;5115265;28;20186;-72
2021/12/20 01:45:35;;;;;;;2.33;2.13;;;4.40;88.30;3.40;99001.00;;;;5115235;28;20226;-72
2021/12/20 01:48:07;;;;;;;2.07;1.97;;;4.40;87.80;3.50;98988.00;;;;5115302;28;20209;-72
2021/12/20 01:50:52;;;;;;;1.70;1.60;;;4.40;88.00;3.60;98996.00;;;;5115107;28;20291;-72
2021/12/20 01:53:22;;;;;;;1.33;1.33;;;4.40;88.00;3.50;98990.00;;;;5097432;28;20678;-72
2021/12/20 01:55:52;;;;;;;2.50;2.07;;;4.40;87.50;3.40;98987.00;;;;5115092;28;20222;-72
2021/12/20 01:58:19;;;;;;;1.67;1.57;;;4.30;87.20;3.40;98990.00;;;;5097212;28;20208;-72
2021/12/20 02:03:35;;;;;;;2.43;2.27;;;4.30;87.60;3.30;98984.00;;;;5115009;28;20240;-72
2021/12/20 02:06:06;;;;;;;1.53;1.43;;;4.30;87.70;3.40;98986.00;;;;5097252;28;20194;-72
2021/12/20 02:08:33;;;;;;;1.63;1.53;;;4.30;88.00;3.40;98987.00;;;;5096927;28;20218;-72
2021/12/20 02:11:03;;;;;;;2.57;2.33;;;4.30;88.00;3.40;98954.00;;;;5114930;28;20206;-72
2021/12/20 02:13:31;;;;;;;1.53;1.43;;;4.30;87.90;3.40;98990.00;;;;5114870;28;20213;-72
2021/12/20 02:16:00;;;;;;;2.77;2.57;;;4.30;87.80;3.40;98992.00;;;;5114746;28;20237;-72
2021/12/20 02:18:27;;;;;;;3.03;2.07;;;4.30;87.90;3.40;98957.00;;;;5114813;28;20278;-72
2021/12/20 02:20:55;;;;;;;2.43;2.23;;;4.30;87.70;3.30;98983.00;;;;5114721;28;20225;-72
2021/12/20 02:23:22;;;;;;;2.10;1.93;;;4.20;87.50;3.30;98996.00;;;;5096795;28;20251;-72
2021/12/20 02:25:49;;;;;;;1.20;1.17;;;4.20;88.00;3.40;98986.00;;;;5114691;28;20201;-72
2021/12/20 02:28:19;;;;;;;2.03;1.93;;;4.20;88.20;3.40;98988.00;;;;5114756;28;20324;-72
2021/12/20 02:36:52;;;;;;;1.87;1.77;;;4.20;88.00;3.40;98989.00;;;;5114000;28;20202;-72
2021/12/20 02:39:10;;;;;;;1.93;1.80;;;4.30;87.60;3.50;98986.00;;;;5114410;28;20222;-72
2021/12/20 02:41:36;;;;;;;3.57;2.40;;;4.30;87.40;3.40;98982.00;;;;5114535;28;20186;-72
2021/12/20 02:44:05;;;;;;;2.20;2.03;;;4.30;87.30;3.40;98978.00;;;;5114417;28;20194;-73
2021/12/20 02:46:48;;;;;;;1.10;1.10;;;4.30;87.50;3.40;98976.00;;;;5114264;28;20217;-72
2021/12/20 02:49:18;;;;;;;6.67;3.13;;;4.20;87.60;3.40;98980.00;;;;5114364;28;20254;-72
2021/12/20 02:51:49;;;;;;;1.87;1.40;;;4.20;88.00;3.30;98969.00;;;;5114237;28;20304;-72
2021/12/20 02:54:17;;;;;;;2.77;2.57;;;4.20;88.20;3.30;98976.00;;;;5114406;28;20202;-72
2021/12/20 02:56:43;;;;;;;6.07;2.20;;;4.20;88.50;3.40;98971.00;;;;5114232;28;20583;-72
2021/12/20 02:59:14;;;;;;;2.17;1.90;;;4.30;89.60;3.50;98970.00;;;;5114433;28;20293;-72
2021/12/20 03:01:45;;;;;;;3.90;2.20;;;4.30;88.90;3.50;98966.00;;;;5114374;28;20574;-71
2021/12/20 03:04:13;;;;;;;2.60;2.17;;;4.30;88.70;3.40;98970.00;;;;5114113;28;20213;-72
2021/12/20 03:06:46;;;;;;;3.00;1.73;;;4.30;88.60;3.40;98965.00;;;;5114258;28;20209;-72
2021/12/20 03:09:18;;;;;;;2.03;1.83;;;4.20;88.60;3.20;98972.00;;;;5096452;28;20301;-72
2021/12/20 03:11:47;;;;;;;5.67;2.17;;;4.20;89.40;3.40;98977.00;;;;5114167;28;20198;-72
2021/12/20 03:14:20;;;;;;;2.20;2.00;;;4.30;89.10;3.50;98975.00;;;;5114099;28;20190;-72
2021/12/20 03:16:49;;;;;;;2.60;2.40;;;4.30;89.20;3.50;98977.00;;;;5113840;28;20265;-72
2021/12/20 03:19:15;;;;;;;2.57;2.20;;;4.30;89.00;3.40;98960.00;;;;5114256;28;20641;-73
2021/12/20 03:21:42;;;;;;;2.97;2.77;;;4.30;88.60;3.30;98968.00;;;;5113944;28;20194;-72
2021/12/20 03:24:10;;;;;;;3.17;2.97;;;4.30;88.70;3.40;98971.00;;;;5096068;28;20289;-73
2021/12/20 03:26:37;;;;;;;2.17;2.07;;;4.20;89.60;3.40;98969.00;;;;5114019;28;20235;-72
2021/12/20 03:29:04;;;;;;;2.50;2.30;;;4.20;89.60;3.40;98969.00;;;;5095976;28;20601;-73
2021/12/20 03:31:32;;;;;;;3.30;3.00;;;4.20;89.00;3.30;98929.00;;;;5113903;28;20218;-72
2021/12/20 03:33:59;;;;;;;2.50;1.93;;;4.20;89.00;3.40;98976.00;;;;5113654;28;20305;-72
2021/12/20 03:36:26;;;;;;;3.47;3.07;;;4.20;89.20;3.20;98973.00;;;;5113874;28;20228;-72
2021/12/20 03:38:52;;;;;;;2.60;2.10;;;4.20;88.90;3.30;98977.00;;;;5113830;28;20279;-73
2021/12/20 03:41:21;;;;;;;4.10;1.97;;;4.10;89.20;3.30;98976.00;;;;5113664;28;20314;-72
2021/12/20 03:43:50;;;;;;;1.60;0.93;;;4.10;89.20;3.20;98967.00;;;;5099309;28;20221;-72
2021/12/20 03:46:17;;;;;;;6.40;2.43;;;4.10;89.20;3.20;98969.00;;;;5117139;28;20194;-72
2021/12/20 03:48:44;;;;;;;1.50;1.50;;;4.00;89.20;3.20;98972.00;;;;5117241;28;20282;-73
2021/12/20 03:51:11;;;;;;;1.73;1.63;;;4.10;89.70;3.30;98971.00;;;;5099254;28;20285;-72
2021/12/20 03:53:40;;;;;;;1.97;1.87;;;4.10;89.70;3.20;98967.00;;;;5116983;28;20663;-72
2021/12/20 03:56:07;;;;;;;2.87;2.67;;;4.10;89.60;3.20;98968.00;;;;5117041;28;20307;-72
2021/12/20 03:58:36;;;;;;;2.47;2.37;;;4.10;89.60;3.20;98971.00;;;;5117175;28;20217;-72
2021/12/20 04:01:06;;;;;;;3.43;3.13;;;4.00;89.50;3.20;98981.00;;;;5117170;28;20206;-73
2021/12/20 04:03:36;;;;;;;2.60;2.40;;;4.00;89.90;3.20;98984.00;;;;5099127;28;20201;-72
2021/12/20 04:06:03;;;;;;;3.73;2.93;;;4.10;90.10;3.20;98973.00;;;;5116815;28;20193;-72
2021/12/20 04:08:30;;;;;;;2.67;2.07;;;4.10;90.20;3.30;98981.00;;;;5117005;28;20197;-72
2021/12/20 04:10:58;;;;;;;3.63;3.00;;;4.10;90.20;3.20;98978.00;;;;5116709;28;20249;-73
2021/12/20 04:13:25;;;;;;;3.93;2.67;;;4.10;90.10;3.30;98977.00;;;;5116963;28;20191;-72
2021/12/20 04:15:53;;;;;;;2.13;2.03;;;4.10;90.10;3.30;98972.00;;;;5116554;28;20297;-72
2021/12/20 04:18:23;;;;;;;3.80;3.47;;;4.10;90.10;3.20;98975.00;;;;5098670;28;20293;-72
2021/12/20 04:20:50;;;;;;;2.17;1.97;;;4.10;90.50;3.20;98941.00;;;;5116762;28;20640;-72
2021/12/20 04:23:17;;;;;;;1.30;1.30;;;4.10;90.10;3.20;98967.00;;;;5116551;28;20222;-73
2021/12/20 04:25:44;;;;;;;3.83;2.13;;;4.10;90.30;3.10;98974.00;;;;5116676;28;20222;-72
2021/12/20 04:28:11;;;;;;;2.80;2.60;;;4.00;90.40;3.20;98969.00;;;;5116440;28;20265;-72
2021/12/20 04:30:39;;;;;;;2.67;2.13;;;4.10;90.90;3.30;98981.00;;;;5116403;28;20258;-73
2021/12/20 04:33:07;;;;;;;1.70;1.33;;;4.10;90.40;3.20;98931.00;;;;5116441;28;20542;-72
2021/12/20 04:35:34;;;;;;;4.30;2.67;;;4.10;90.00;3.10;98968.00;;;;5098353;28;20256;-72
2021/12/20 04:38:01;;;;;;;2.97;2.73;;;4.00;90.20;3.00;98956.00;;;;5115465;28;20217;-72
2021/12/20 04:40:28;;;;;;;2.03;1.93;;;3.90;90.90;3.10;98969.00;;;;5098276;28;20498;-72
2021/12/20 04:42:59;;;;;;;4.23;2.60;;;4.00;91.20;3.20;98985.00;;;;5116109;28;20202;-73
2021/12/20 04:45:27;;;;;;;0.90;0.90;;;4.00;91.40;3.10;98969.00;;;;5116362;28;20287;-74
2021/12/20 04:47:55;;;;;;;1.73;1.63;;;4.00;91.20;3.10;98968.00;;;;5116166;28;20217;-73
2021/12/20 04:50:23;;;;;;;2.93;2.63;;;4.00;91.10;3.20;98976.00;;;;5116144;28;20198;-72
2021/12/20 04:52:51;;;;;;;1.70;1.60;;;4.10;91.30;3.20;98985.00;;;;5115996;28;20214;-72
2021/12/20 04:55:20;;;;;;;2.03;1.93;;;4.10;91.10;3.10;98975.00;;;;5115281;28;20205;-72
2021/12/20 04:57:48;;;;;;;3.77;2.77;;;4.10;91.00;3.20;98951.00;;;;5116060;28;20218;-72
2021/12/20 05:00:20;;;;;;;5.37;1.63;;;4.10;91.00;3.20;98973.00;;;;5115841;28;20306;-73
2021/12/20 05:02:47;;;;;;;6.67;4.07;;;4.00;91.00;3.10;98946.00;;;;5116056;28;20222;-72
2021/12/20 05:05:18;;;;;;;2.40;2.20;;;4.00;90.80;3.30;98975.00;;;;5098076;28;20538;-73
2021/12/20 05:07:46;;;;;;;2.03;1.93;;;4.10;91.40;3.30;98974.00;;;;5116290;28;20212;-73
2021/12/20 05:10:25;;;;;;;2.03;1.93;;;4.10;91.10;3.20;98967.00;;;;5116073;28;20530;-73
2021/12/20 05:12:52;;;;;;;8.20;3.00;;;4.10;90.70;3.10;98965.00;;;;5115731;28;20299;-72
2021/12/20 05:15:22;;;;;;;3.57;3.27;;;4.00;90.60;3.20;98973.00;;;;5115761;28;20216;-72
2021/12/20 05:17:51;;;;;;;2.87;2.67;;;4.00;90.80;3.20;98978.00;;;;5115634;28;20593;-73
2021/12/20 05:20:18;;;;;;;2.20;2.00;;;4.10;91.10;3.30;98981.00;;;;5115707;28;20639;-72
2021/12/20 05:22:47;;;;;;;3.17;2.63;;;4.10;91.20;3.30;98957.00;;;;5115643;28;20197;-73
2021/12/20 05:25:14;;;;;;;4.10;1.93;;;4.10;91.10;3.30;98929.00;;;;5097561;28;20225;-72
2021/12/20 05:27:44;;;;;;;1.33;1.33;;;4.10;90.90;3.30;98980.00;;;;5115638;28;20296;-72
2021/12/20 05:30:13;;;;;;;1.63;1.53;;;4.20;90.90;3.20;98987.00;;;;5097534;28;20197;-72
2021/12/20 05:32:39;;;;;;;2.90;2.50;;;4.10;90.80;3.20;98987.00;;;;5114902;28;20297;-72
2021/12/20 05:35:09;;;;;;;2.70;2.17;;;4.10;90.80;3.20;98994.00;;;;5115466;28;20276;-73
2021/12/20 05:37:36;;;;;;;2.77;2.50;;;4.10;91.00;3.20;98973.00;;;;5097398;28;20239;-73
2021/12/20 05:40:05;;;;;;;3.20;2.10;;;4.10;91.10;3.20;98982.00;;;;5115390;28;20235;-73
2021/12/20 05:42:35;;;;;;;3.57;3.23;;;4.10;91.20;3.20;98976.00;;;;5115161;28;20555;-73
2021/12/20 05:45:02;;;;;;;3.13;2.83;;;4.10;90.90;3.20;98987.00;;;;5115260;28;20289;-73
2021/12/20 05:47:29;;;;;;;2.23;1.47;;;4.10;91.10;3.30;98984.00;;;;5115181;28;20596;-72
2021/12/20 05:49:58;;;;;;;2.73;2.57;;;4.10;91.20;3.20;98991.00;;;;5115065;28;20290;-73
2021/12/20 05:52:25;;;;;;;3.63;3.27;;;4.10;91.00;3.20;98999.00;;;;5115358;28;20202;-73
2021/12/20 05:54:51;;;;;;;1.73;1.63;;;4.10;90.80;3.20;98998.00;;;;5097024;28;20704;-73
2021/12/20 05:57:18;;;;;;;1.97;1.83;;;4.10;91.00;3.20;99004.00;;;;5114918;28;20316;-73
2021/12/20 05:59:45;;;;;;;4.63;3.00;;;4.10;91.00;3.20;99001.00;;;;5115154;28;20685;-73
2021/12/20 06:02:11;;;;;;;1.40;1.40;;;4.10;91.10;3.10;99003.00;;;;5114994;28;20301;-72
2021/12/20 06:04:38;;;;;;;1.70;1.60;;;4.00;90.90;3.10;98996.00;;;;5114564;28;20293;-72
2021/12/20 06:07:08;;;;;;;2.33;2.23;;;4.00;91.00;3.20;99003.00;;;;5113737;28;20217;-73
2021/12/20 06:09:35;;;;;;;3.33;3.13;;;4.00;91.10;3.10;98998.00;;;;5114793;28;20224;-73
2021/12/20 06:12:05;;;;;;;5.37;2.47;;;4.00;91.10;3.10;98998.00;;;;5114726;28;20610;-73
2021/12/20 06:14:34;;;;;;;1.60;1.47;;;4.00;91.90;3.20;98989.00;;;;5114627;28;20213;-73
2021/12/20 06:17:03;;;;;;;1.67;1.57;;;4.00;91.30;3.20;98989.00;;;;5114658;28;20228;-73
2021/12/20 06:19:30;;;;;;;1.17;1.17;;;4.00;91.10;3.10;98989.00;;;;5114469;28;20299;-73
2021/12/20 06:21:56;;;;;;;3.53;3.23;;;4.00;91.00;3.10;98989.00;;;;5114668;28;20614;-72
2021/12/20 06:24:24;;;;;;;2.60;1.87;;;4.00;91.10;3.10;98994.00;;;;5114777;28;20350;-73
2021/12/20 06:26:53;;;;;;;4.10;2.67;;;4.00;91.40;3.10;98991.00;;;;5114510;28;20670;-73
2021/12/20 06:29:19;;;;;;;1.50;1.47;;;4.00;91.60;3.20;98992.00;;;;5114977;28;20222;-72
2021/12/20 06:31:47;;;;;;;1.93;1.83;;;4.00;91.70;3.20;98988.00;;;;5114405;28;20663;-73
2021/12/20 06:34:14;;;;;;;1.60;1.60;;;4.00;91.40;3.20;98993.00;;;;5114636;28;20307;-73
2021/12/20 06:36:42;;;;;;;6.77;1.80;;;4.10;91.60;3.20;99000.00;;;;5114367;28;20222;-72
2021/12/20 06:39:09;;;;;;;3.27;3.07;;;4.10;91.50;3.20;98992.00;;;;5114251;28;20296;-73
2021/12/20 06:41:36;;;;;;;1.47;1.43;;;4.10;91.50;3.10;98992.00;;;;5114272;28;20209;-74
2021/12/20 06:44:04;;;;;;;4.03;3.67;;;4.00;91.40;3.20;99001.00;;;;5114311;28;20222;-73
2021/12/20 06:46:38;;;;;;;2.53;2.33;;;4.00;91.70;3.10;99003.00;;;;5096228;28;20209;-73
2021/12/20 06:49:08;;;;;;;2.17;2.07;;;4.10;91.80;3.30;99000.00;;;;5114330;28;20221;-73
2021/12/20 06:51:40;;;;;;;3.57;3.27;;;4.10;92.00;3.30;99011.00;;;;5114528;28;20209;-73
2021/12/20 06:54:09;;;;;;;1.87;1.77;;;4.10;91.70;3.30;99002.00;;;;5114620;28;20194;-73
2021/12/20 06:56:39;;;;;;;4.53;3.03;;;4.20;91.60;3.30;99010.00;;;;5114066;28;20274;-73
2021/12/20 06:59:06;;;;;;;2.53;2.33;;;4.10;91.20;3.30;98966.00;;;;5114168;28;20272;-73
2021/12/20 07:01:32;;;;;;;3.53;2.47;;;4.10;91.20;3.30;99019.00;;;;5114344;28;20194;-73
2021/12/20 07:04:01;;;;;;;3.23;2.73;;;4.10;91.10;3.30;99018.00;;;;5096218;28;20258;-73
2021/12/20 07:06:29;;;;;;;2.23;2.10;;;4.10;91.10;3.20;99013.00;;;;5113947;28;20205;-73
2021/12/20 07:08:58;;;;;;;2.93;2.73;;;4.10;91.00;3.30;99023.00;;;;5114236;28;20259;-73
2021/12/20 07:11:25;;;;;;;2.30;2.07;;;4.10;91.10;3.30;99022.00;;;;5113989;28;20194;-73
2021/12/20 07:13:53;;;;;;;3.97;1.63;;;4.10;91.00;3.30;99013.00;;;;5114001;28;20667;-73
2021/12/20 07:16:22;;;;;;;2.80;1.57;;;4.10;90.90;3.30;99019.00;;;;5113914;28;20214;-73
2021/12/20 07:18:51;;;;;;;2.00;1.90;;;4.10;90.90;3.20;99032.00;;;;5117437;28;20640;-72
2021/12/20 07:21:18;;;;;;;2.30;2.10;;;4.10;90.90;3.20;99027.00;;;;5117426;28;20308;-73
2021/12/20 07:23:45;;;;;;;1.80;1.67;;;4.10;90.80;3.20;99023.00;;;;5117375;28;20297;-73
2021/12/20 07:26:13;;;;;;;4.43;2.63;;;4.10;90.90;3.20;99012.00;;;;5099603;28;20258;-74
2021/12/20 07:28:41;;;;;;;2.93;2.73;;;4.10;91.10;3.20;99034.00;;;;5117616;28;20222;-74
2021/12/20 07:31:08;;;;;;;3.33;3.03;;;4.10;91.10;3.20;99037.00;;;;5117415;28;20208;-74
2021/12/20 07:33:35;;;;;;;3.97;2.70;;;4.10;91.70;3.20;99036.00;;;;5117410;28;20548;-74
2021/12/20 07:36:01;;;;;;;2.53;2.33;;;4.10;90.90;3.20;99035.00;;;;5117221;28;20225;-73
2021/12/20 07:38:28;;;;;;;3.93;3.23;;;4.10;90.90;3.20;99028.00;;;;5117101;28;20225;-73
2021/12/20 07:40:55;;;;;;;2.37;2.23;;;4.10;91.50;3.20;99035.00;;;;5117107;28;20327;-73
2021/12/20 07:43:22;;;;;;;4.03;2.03;;;4.10;90.90;3.30;99038.00;;;;5117245;28;20270;-75
2021/12/20 07:45:49;;;;;;;2.83;2.50;;;4.10;91.10;3.30;99039.00;;;;5116921;28;20323;-76
2021/12/20 07:48:19;;;;;;;2.07;1.97;;;4.10;90.90;3.30;99048.00;;;;5117017;28;20210;-76
2021/12/20 07:50:47;;;;;;;2.60;1.97;;;4.20;90.80;3.30;99047.00;;;;5116874;28;20719;-76
2021/12/20 07:53:18;;;;;;;2.20;2.03;;;4.10;91.50;3.30;99040.00;;;;5117143;28;20200;-76
2021/12/20 07:55:44;;;;;;;4.20;3.80;;;4.10;90.60;3.30;99055.00;;;;5116885;28;20272;-76
2021/12/20 07:58:12;;;;;;;2.20;2.07;;;4.10;90.80;3.30;99053.00;;;;5116739;28;20212;-76
2021/12/20 08:00:38;;;;;;;2.07;1.97;;;4.10;90.90;3.30;99050.00;;;;5116837;28;20198;-74
2021/12/20 08:03:05;;;;;;;1.60;1.60;;;4.20;91.00;3.40;99049.00;;;;5116994;28;20257;-75
2021/12/20 08:05:32;;;;;;;2.27;2.17;;;4.20;91.00;3.40;99048.00;;;;5116735;28;20197;-75
2021/12/20 08:08:01;;;;;;;1.93;1.83;;;4.20;90.90;3.50;99052.00;;;;5116573;28;20220;-74
2021/12/20 08:10:28;;;;;;;2.83;2.63;;;4.20;91.00;3.50;99054.00;;;;5116828;28;20281;-75
2021/12/20 08:12:55;;;;;;;2.20;2.10;;;4.30;91.00;3.50;99059.00;;;;5116540;28;20232;-75
2021/12/20 08:15:23;;;;;;;3.90;2.53;;;4.30;90.90;3.50;99056.00;;;;5116551;28;20202;-77
2021/12/20 08:17:50;;;;;;;1.33;1.33;;;4.40;90.70;3.50;99054.00;;;;5116532;28;20275;-74
2021/12/20 08:20:17;;;;;;;3.10;2.80;;;4.40;90.70;3.60;99055.00;;;;5116555;28;20236;-75
2021/12/20 08:22:44;;;;;;;2.80;2.63;;;4.40;90.80;3.60;99055.00;;;;5116520;28;20204;-74
2021/12/20 08:25:10;;;;;;;3.17;2.93;;;4.40;90.80;3.60;99054.00;;;;5098478;28;20529;-75
2021/12/20 08:27:37;;;;;;;1.53;1.50;;;4.50;90.80;3.70;99052.00;;;;5116466;28;20273;-73
2021/12/20 08:30:05;;;;;;;2.50;2.30;;;4.50;90.60;3.70;99041.00;;;;5115205;28;20201;-73
2021/12/20 08:32:36;;;;;;;2.57;2.40;;;4.50;90.60;3.70;99051.00;;;;5116378;28;20217;-74
2021/12/20 08:35:03;;;;;;;2.80;2.60;;;4.50;90.40;3.70;99050.00;;;;5116448;28;20297;-74
2021/12/20 08:37:33;;;;;;;2.87;2.20;;;4.60;90.50;3.70;99054.00;;;;5116258;28;20217;-75
2021/12/20 08:39:59;;;;;;;2.97;2.77;;;4.60;90.40;3.80;99066.00;;;;5116162;28;20217;-75
2021/12/20 08:42:26;;;;;;;1.43;1.37;;;4.60;90.50;3.90;99059.00;;;;5116201;28;20198;-74
2021/12/20 08:44:55;;;;;;;2.70;2.60;;;4.70;90.50;3.90;99054.00;;;;5116112;28;20244;-73
2021/12/20 08:47:21;;;;;;;2.90;2.10;;;4.70;90.30;3.90;99060.00;;;;5116104;28;20212;-74
2021/12/20 08:49:49;;;;;;;2.23;2.07;;;4.70;90.30;4.00;99072.00;;;;5115974;28;20198;-74
2021/12/20 08:52:17;;;;;;;14.40;2.80;;;4.70;90.30;4.00;99076.00;;;;5115979;28;20214;-76
2021/12/20 08:54:44;;;;;;;2.07;1.77;;;4.80;90.20;4.20;99073.00;;;;5115891;28;20273;-75
2021/12/20 08:57:11;;;;;;;2.60;2.40;;;4.90;89.90;4.20;99081.00;;;;5097853;28;20729;-74
2021/12/20 08:59:37;;;;;;;3.73;1.93;;;5.00;89.60;4.20;99076.00;;;;5115882;28;20210;-75
2021/12/20 09:02:07;;;;;;;1.93;1.83;;;5.00;89.20;4.20;99080.00;;;;5098237;28;20194;-75
2021/12/20 09:04:35;;;;;;;2.67;2.50;;;5.00;89.10;4.10;99082.00;;;;5115984;28;20285;-75
2021/12/20 09:07:04;;;;;;;3.93;3.27;;;5.00;89.00;4.20;99074.00;;;;5115770;28;20289;-75
2021/12/20 09:09:38;;;;;;;2.83;2.00;;;5.00;89.10;4.10;99083.00;;;;5115695;28;20754;-72
2021/12/20 09:12:06;;;;;;;2.80;2.57;;;5.00;88.60;4.20;99083.00;;;;5115729;28;20263;-73
2021/12/20 09:14:33;;;;;;;1.73;1.63;;;5.00;88.30;4.20;99077.00;;;;5097874;28;20498;-73
2021/12/20 09:17:01;;;;;;;2.20;2.10;;;5.00;88.40;4.20;99090.00;;;;5115262;28;20286;-76
2021/12/20 09:19:27;;;;;;;2.50;2.30;;;5.00;88.30;4.30;99094.00;;;;5115649;28;20277;-74
2021/12/20 09:21:54;;;;;;;3.43;3.13;;;5.10;88.50;4.30;99088.00;;;;5115400;28;20350;-74
2021/12/20 09:24:21;;;;;;;2.97;2.77;;;5.10;88.30;4.40;99094.00;;;;5115469;28;20454;-76
2021/12/20 09:26:48;;;;;;;4.67;2.43;;;5.10;88.00;4.40;99090.00;;;;5115460;28;20192;-76
2021/12/20 09:29:14;;;;;;;1.97;1.87;;;5.20;87.70;4.40;99079.00;;;;5115457;28;20269;-74
2021/12/20 09:31:44;;;;;;;5.67;2.70;;;5.10;87.60;4.40;99082.00;;;;5115469;28;20193;-76
2021/12/20 09:34:10;;;;;;;1.97;1.87;;;5.20;87.30;4.40;99097.00;;;;5115279;28;20225;-71
2021/12/20 09:36:37;;;;;;;1.87;1.77;;;5.20;87.30;4.50;99103.00;;;;5115259;28;20228;-75
2021/12/20 09:39:07;;;;;;;4.10;1.53;;;5.30;87.30;4.50;99088.00;;;;5115291;28;20208;-75
2021/12/20 09:44:26;;;;;;;1.30;1.30;;;5.30;86.70;4.60;99093.00;;;;5115424;28;20197;-76
2021/12/20 09:46:55;;;;;;;2.10;2.00;;;5.40;85.60;4.70;99102.00;;;;5114956;28;20264;-74
2021/12/20 09:49:22;;;;;;;3.00;2.13;;;5.40;85.20;4.70;99102.00;;;;5115289;28;20335;-74
2021/12/20 09:51:50;;;;;;;7.10;2.27;;;5.40;84.90;4.70;99095.00;;;;5097401;28;20262;-74
2021/12/20 09:54:16;;;;;;;4.23;2.00;;;5.50;84.50;4.70;99092.00;;;;5115102;28;20259;-73
2021/12/20 09:56:44;;;;;;;1.93;1.87;;;5.40;84.20;4.70;99083.00;;;;5114778;28;20296;-73
2021/12/20 09:59:17;;;;;;;5.30;3.77;;;5.50;84.20;4.80;99084.00;;;;5114908;28;20621;-74
2021/12/20 10:01:45;;;;;;;3.27;3.00;;;5.50;84.30;4.80;99080.00;;;;5114868;28;20299;-75
2021/12/20 10:04:13;;;;;;;6.23;2.63;;;5.50;84.10;4.80;99085.00;;;;5114769;28;20693;-75
2021/12/20 10:06:41;;;;;;;2.10;1.90;;;5.50;84.00;4.80;99087.00;;;;5114283;28;20276;-75
2021/12/20 10:09:12;;;;;;;1.73;1.63;;;5.50;83.80;4.80;99077.00;;;;5114235;28;20692;-73
2021/12/20 10:11:40;;;;;;;3.40;2.90;;;5.50;84.20;4.60;99083.00;;;;5114598;28;20255;-74
2021/12/20 10:14:10;;;;;;;1.70;1.60;;;5.40;83.80;4.80;99086.00;;;;5114739;28;20212;-75
2021/12/20 10:16:43;;;;;;;2.00;1.90;;;5.50;83.90;4.70;99085.00;;;;5114690;28;20317;-76
2021/12/20 10:19:29;;;;;;;1.93;1.83;;;5.50;83.60;4.70;99082.00;;;;5096791;28;20214;-76
2021/12/20 10:21:58;;;;;;;6.93;1.93;;;5.40;83.90;4.70;99082.00;;;;5114575;28;20214;-76
2021/12/20 10:24:32;;;;;;;1.93;1.83;;;5.50;84.00;4.60;99067.00;;;;5114408;28;20189;-75
2021/12/20 10:26:59;;;;;;;1.47;1.37;;;5.40;84.00;4.60;99091.00;;;;5114342;28;20224;-76
2021/12/20 10:29:27;;;;;;;2.93;2.73;;;5.40;84.00;4.60;99092.00;;;;5114356;28;20190;-76
2021/12/20 10:31:56;;;;;;;3.77;2.43;;;5.40;84.00;4.60;99086.00;;;;5114476;28;20298;-75
2021/12/20 10:34:31;;;;;;;2.50;1.67;;;5.40;84.10;4.60;99089.00;;;;5114384;28;20290;-75
2021/12/20 10:37:00;;;;;;;3.03;2.83;;;5.40;84.10;4.60;99089.00;;;;5114299;28;20528;-75
2021/12/20 10:39:35;;;;;;;1.87;1.77;;;5.40;84.40;4.80;99077.00;;;;5114422;28;20220;-77
2021/12/20 10:42:25;;;;;;;2.57;2.43;;;5.50;84.50;4.80;99077.00;;;;5114338;28;20197;-75
2021/12/20 10:45:19;;;;;;;2.07;1.97;;;5.50;84.10;4.80;99077.00;;;;5113575;28;20526;-75
2021/12/20 10:47:49;;;;;;;4.20;2.13;;;5.60;83.80;4.80;99077.00;;;;5110323;28;20669;-74
2021/12/20 10:50:28;;;;;;;3.07;2.93;;;5.60;83.50;4.80;99075.00;;;;5114247;28;20197;-73
2021/12/20 10:53:15;;;;;;;3.30;2.00;;;5.60;83.50;4.80;99070.00;;;;5098446;28;20202;-74
2021/12/20 10:55:44;;;;;;;1.67;1.57;;;5.60;83.80;4.80;99069.00;;;;5117856;28;20236;-76
2021/12/20 10:58:23;;;;;;;1.53;1.47;;;5.60;84.10;5.00;99059.00;;;;5099936;28;20264;-75
2021/12/20 11:01:15;;;;;;;2.30;2.20;;;5.70;84.10;5.30;99023.00;;;;5117741;28;20229;-76
2021/12/20 11:03:43;;;;;;;3.03;2.77;;;5.90;84.60;5.50;99071.00;;;;5117809;28;20221;-76
2021/12/20 11:06:26;;;;;;;3.07;2.60;;;6.10;83.60;5.40;99069.00;;;;5117544;28;20232;-75
2021/12/20 11:09:05;;;;;;;2.33;2.23;;;6.20;82.70;5.80;99059.00;;;;5117700;28;20335;-76
2021/12/20 11:11:33;;;;;;;2.23;2.03;;;6.40;80.80;5.90;99068.00;;;;5117376;28;20625;-75
2021/12/20 11:14:02;;;;;;;3.17;2.97;;;6.50;78.50;5.80;99066.00;;;;5099541;28;20268;-76
2021/12/20 11:16:32;;;;;;;4.13;2.60;;;6.40;78.10;5.70;99065.00;;;;5117338;28;20242;-76
2021/12/20 11:19:33;;;;;;;0.93;0.93;;;6.40;77.40;5.70;99073.00;;;;5099246;28;20626;-77
2021/12/20 11:22:08;;;;;;;2.93;2.73;;;6.30;77.80;5.70;99062.00;;;;5117380;28;20203;-77
2021/12/20 11:24:42;;;;;;;3.70;1.80;;;6.40;76.80;5.90;99053.00;;;;5117279;28;20198;-76
2021/12/20 11:27:14;;;;;;;2.63;1.37;;;6.40;76.80;5.90;99050.00;;;;5117256;28;20194;-76
2021/12/20 11:29:43;;;;;;;1.20;1.20;;;6.50;75.50;5.80;99062.00;;;;5117155;28;20270;-76
2021/12/20 11:32:11;;;;;;;4.10;2.47;;;6.50;75.50;5.90;99055.00;;;;5117267;28;20309;-76